createdAt,value
2019-05-21T00:01:38.180Z,62.73
2019-05-21T00:04:04.754Z,54.67
2019-05-21T00:06:31.423Z,56.63
2019-05-21T00:08:57.976Z,55.43
2019-05-21T00:11:24.614Z,55.60
2019-05-21T00:13:51.450Z,54.00
2019-05-21T00:16:19.017Z,55.87
2019-05-21T00:18:45.678Z,56.00
2019-05-21T00:21:12.262Z,55.17
2019-05-21T00:23:38.918Z,54.50
2019-05-21T00:26:06.104Z,54.73
2019-05-21T00:28:38.785Z,52.60
2019-05-21T00:31:43.721Z,50.37
2019-05-21T00:34:50.359Z,53.40
2019-05-21T00:37:54.693Z,50.73
2019-05-21T00:40:59.038Z,59.00
2019-05-21T00:43:41.169Z,51.10
2019-05-21T00:46:07.846Z,52.33
2019-05-21T00:48:34.382Z,54.40
2019-05-21T00:51:00.953Z,55.83
2019-05-21T00:53:27.608Z,52.63
2019-05-21T00:55:55.202Z,54.20
2019-05-21T00:58:21.922Z,48.70
2019-05-21T01:00:48.587Z,51.60
2019-05-21T01:03:15.216Z,49.63
2019-05-21T01:05:41.892Z,51.70
2019-05-21T01:08:08.338Z,50.73
2019-05-21T01:10:34.922Z,47.73
2019-05-21T01:13:02.261Z,50.27
2019-05-21T01:15:28.842Z,55.37
2019-05-21T01:17:55.374Z,53.23
2019-05-21T01:20:22.038Z,54.83
2019-05-21T01:22:48.693Z,57.97
2019-05-21T01:25:15.271Z,50.07
2019-05-21T01:27:41.806Z,56.00
2019-05-21T01:30:08.788Z,56.63
2019-05-21T01:32:35.430Z,51.27
2019-05-21T01:35:16.568Z,55.80
2019-05-21T01:37:33.320Z,48.67
2019-05-21T01:39:59.884Z,54.53
2019-05-21T01:42:27.311Z,50.90
2019-05-21T01:44:53.881Z,53.00
2019-05-21T01:47:20.541Z,49.60
2019-05-21T01:49:47.083Z,53.23
2019-05-21T01:52:13.642Z,52.03
2019-05-21T01:54:40.277Z,55.23
2019-05-21T01:57:06.742Z,52.83
2019-05-21T01:59:33.368Z,52.83
2019-05-21T02:02:00.043Z,51.13
2019-05-21T02:04:26.879Z,57.63
2019-05-21T02:06:53.553Z,55.10
2019-05-21T02:09:21.371Z,50.73
2019-05-21T02:11:47.982Z,51.93
2019-05-21T02:14:15.116Z,53.57
2019-05-21T02:16:41.881Z,54.97
2019-05-21T02:19:09.416Z,51.90
2019-05-21T02:21:36.113Z,52.70
2019-05-21T02:24:04.523Z,50.77
2019-05-21T02:26:31.439Z,49.30
2019-05-21T02:28:58.172Z,55.30
2019-05-21T02:31:25.639Z,51.97
2019-05-21T02:33:52.971Z,52.07
2019-05-21T02:36:21.270Z,56.47
2019-05-21T02:38:48.010Z,54.47
2019-05-21T02:41:14.674Z,57.30
2019-05-21T02:43:41.811Z,54.97
2019-05-21T02:46:09.386Z,62.10
2019-05-21T02:48:36.107Z,60.23
2019-05-21T02:51:04.373Z,61.37
2019-05-21T02:53:34.319Z,60.73
2019-05-21T02:55:59.356Z,64.03
2019-05-21T02:58:26.037Z,59.10
2019-05-21T03:01:03.567Z,63.10
2019-05-21T03:03:32.142Z,65.97
2019-05-21T03:06:12.973Z,74.57
2019-05-21T03:08:27.349Z,74.80
2019-05-21T03:10:54.295Z,75.43
2019-05-21T03:13:20.957Z,72.67
2019-05-21T03:15:47.501Z,72.00
2019-05-21T03:18:14.054Z,72.40
2019-05-21T03:20:40.909Z,66.50
2019-05-21T03:23:09.165Z,68.43
2019-05-21T03:25:36.496Z,64.57
2019-05-21T03:28:03.264Z,62.10
2019-05-21T03:30:29.897Z,67.37
2019-05-21T03:32:56.775Z,63.20
2019-05-21T03:35:23.931Z,64.10
2019-05-21T03:37:50.875Z,65.03
2019-05-21T03:40:17.609Z,63.87
2019-05-21T03:42:45.872Z,61.03
2019-05-21T03:45:13.215Z,67.40
2019-05-21T03:47:39.877Z,61.90
2019-05-21T03:50:09.518Z,66.30
2019-05-21T03:52:36.193Z,70.60
2019-05-21T03:55:05.118Z,67.50
2019-05-21T03:57:31.792Z,65.57
2019-05-21T04:00:00.015Z,63.27
2019-05-21T04:02:26.785Z,64.30
2019-05-21T04:04:53.411Z,61.37
2019-05-21T04:07:20.185Z,58.40
2019-05-21T04:09:48.425Z,56.80
2019-05-21T04:12:16.721Z,52.80
2019-05-21T04:14:45.163Z,61.33
2019-05-21T04:17:13.610Z,52.40
2019-05-21T04:19:44.142Z,59.33
2019-05-21T04:22:15.688Z,55.07
2019-05-21T04:24:43.150Z,60.50
2019-05-21T04:27:09.684Z,64.07
2019-05-21T04:29:37.950Z,59.67
2019-05-21T04:32:04.625Z,64.80
2019-05-21T04:34:32.854Z,67.30
2019-05-21T04:37:09.779Z,62.70
2019-05-21T04:39:29.666Z,57.23
2019-05-21T04:41:56.326Z,59.23
2019-05-21T04:44:23.093Z,60.93
2019-05-21T04:46:49.725Z,56.77
2019-05-21T04:49:16.505Z,63.17
2019-05-21T04:51:44.739Z,55.50
2019-05-21T04:54:11.905Z,57.77
2019-05-21T04:56:38.552Z,61.13
2019-05-21T04:59:06.211Z,54.10
2019-05-21T05:01:32.951Z,58.73
2019-05-21T05:03:59.713Z,58.30
2019-05-21T05:06:26.439Z,52.10
2019-05-21T05:08:53.902Z,48.50
2019-05-21T05:11:20.543Z,51.83
2019-05-21T05:13:47.099Z,57.83
2019-05-21T05:16:13.738Z,49.83
2019-05-21T05:18:40.402Z,51.93
2019-05-21T05:21:07.120Z,49.60
2019-05-21T05:23:35.385Z,49.97
2019-05-21T05:26:02.183Z,50.20
2019-05-21T05:28:28.943Z,48.33
2019-05-21T05:30:55.585Z,47.37
2019-05-21T05:33:22.141Z,45.93
2019-05-21T05:35:48.711Z,46.37
2019-05-21T05:38:15.336Z,45.93
2019-05-21T05:40:41.909Z,46.13
2019-05-21T05:43:08.553Z,46.63
2019-05-21T05:45:35.228Z,47.07
2019-05-21T05:48:03.368Z,44.83
2019-05-21T05:50:38.192Z,45.70
2019-05-21T05:53:06.131Z,46.37
2019-05-21T05:55:32.682Z,45.80
2019-05-21T05:57:59.305Z,45.70
2019-05-21T06:00:25.968Z,47.80
2019-05-21T06:02:54.183Z,44.73
2019-05-21T06:05:20.853Z,45.70
2019-05-21T06:07:59.385Z,46.80
2019-05-21T06:10:15.956Z,44.00
2019-05-21T06:12:43.089Z,48.10
2019-05-21T06:15:10.862Z,45.23
2019-05-21T06:17:37.503Z,50.17
2019-05-21T06:20:06.338Z,48.90
2019-05-21T06:22:33.159Z,51.53
2019-05-21T06:24:59.821Z,51.07
2019-05-21T06:27:27.386Z,55.77
2019-05-21T06:29:54.758Z,53.80
2019-05-21T06:32:21.390Z,54.20
2019-05-21T06:34:48.907Z,53.83
2019-05-21T06:37:15.606Z,55.47
2019-05-21T06:39:42.182Z,54.20
2019-05-21T06:42:09.523Z,51.70
2019-05-21T06:44:36.103Z,51.47
2019-05-21T06:47:02.933Z,50.97
2019-05-21T06:49:29.501Z,49.83
2019-05-21T06:51:56.039Z,47.37
2019-05-21T06:54:22.607Z,49.17
2019-05-21T06:56:49.139Z,47.87
2019-05-21T06:59:15.703Z,48.17
2019-05-21T07:01:42.455Z,49.30
2019-05-21T07:04:09.124Z,49.47
2019-05-21T07:06:35.776Z,49.77
2019-05-21T07:09:04.295Z,50.03
2019-05-21T07:11:30.865Z,51.30
2019-05-21T07:13:57.498Z,47.53
2019-05-21T07:16:24.184Z,52.97
2019-05-21T07:18:50.716Z,53.57
2019-05-21T07:21:17.294Z,54.93
2019-05-21T07:23:43.922Z,53.40
2019-05-21T07:26:10.582Z,43.90
2019-05-21T07:28:37.247Z,39.00
2019-05-21T07:31:03.820Z,39.47
2019-05-21T07:33:30.338Z,38.20
2019-05-21T07:35:56.965Z,36.33
2019-05-21T07:38:23.559Z,37.43
2019-05-21T07:40:50.219Z,36.77
2019-05-21T07:43:16.660Z,36.30
2019-05-21T07:45:43.322Z,37.00
2019-05-21T07:48:09.861Z,36.10
2019-05-21T07:50:36.415Z,33.47
2019-05-21T07:53:03.162Z,32.30
2019-05-21T07:55:29.716Z,37.23
2019-05-21T07:57:56.344Z,36.03
2019-05-21T08:00:23.311Z,37.37
2019-05-21T08:02:49.946Z,36.00
2019-05-21T08:05:16.431Z,31.10
2019-05-21T08:07:43.669Z,29.57
2019-05-21T08:10:10.531Z,31.13
2019-05-21T08:12:39.379Z,30.93
2019-05-21T08:15:07.668Z,30.70
2019-05-21T08:17:34.322Z,27.53
2019-05-21T08:20:09.189Z,27.63
2019-05-21T08:22:29.729Z,28.20
2019-05-21T08:24:56.259Z,27.00
2019-05-21T08:27:22.823Z,30.50
2019-05-21T08:29:49.733Z,30.60
2019-05-21T08:32:16.302Z,31.47
2019-05-21T08:34:42.866Z,30.00
2019-05-21T08:37:09.638Z,30.83
2019-05-21T08:39:36.370Z,31.10
2019-05-21T08:42:03.152Z,31.73
2019-05-21T08:44:29.697Z,30.10
2019-05-21T08:46:56.300Z,30.37
2019-05-21T08:49:22.756Z,30.63
2019-05-21T08:51:49.294Z,29.73
2019-05-21T08:54:17.928Z,31.77
2019-05-21T08:56:44.699Z,29.80
2019-05-21T08:59:11.428Z,30.53
2019-05-21T09:01:38.106Z,29.70
2019-05-21T09:04:04.645Z,30.47
2019-05-21T09:06:31.405Z,30.63
2019-05-21T09:08:58.030Z,31.13
2019-05-21T09:11:24.794Z,30.47
2019-05-21T09:13:51.819Z,30.03
2019-05-21T09:16:18.501Z,32.97
2019-05-21T09:18:45.134Z,29.80
2019-05-21T09:21:12.444Z,31.00
2019-05-21T09:23:39.073Z,32.27
2019-05-21T09:26:05.854Z,34.70
2019-05-21T09:28:32.582Z,31.23
2019-05-21T09:31:01.671Z,30.67
2019-05-21T09:33:27.680Z,30.30
2019-05-21T09:35:54.250Z,32.10
2019-05-21T09:38:20.889Z,32.50
2019-05-21T09:40:47.541Z,34.20
2019-05-21T09:43:14.217Z,35.67
2019-05-21T09:45:41.854Z,31.53
2019-05-21T09:48:08.413Z,35.97
2019-05-21T09:50:34.951Z,35.50
2019-05-21T09:53:01.545Z,32.53
2019-05-21T09:55:28.075Z,30.60
2019-05-21T09:57:56.562Z,31.30
2019-05-21T10:00:42.246Z,29.20
2019-05-21T10:03:22.894Z,30.37
2019-05-21T10:05:49.635Z,31.00
2019-05-21T10:08:16.218Z,32.53
2019-05-21T10:10:42.634Z,31.00
2019-05-21T10:13:09.307Z,30.10
2019-05-21T10:15:35.886Z,30.40
2019-05-21T10:18:02.546Z,28.63
2019-05-21T10:20:30.767Z,29.27
2019-05-21T10:22:57.503Z,28.33
2019-05-21T10:25:25.125Z,28.30
2019-05-21T10:27:51.794Z,26.07
2019-05-21T10:30:18.343Z,27.43
2019-05-21T10:32:45.229Z,26.03
2019-05-21T10:35:12.274Z,23.73
2019-05-21T10:37:53.749Z,24.40
2019-05-21T10:40:09.788Z,20.40
2019-05-21T10:42:36.452Z,20.63
2019-05-21T10:45:05.696Z,20.90
2019-05-21T10:47:32.473Z,22.37
2019-05-21T10:49:58.990Z,21.53
2019-05-21T10:52:25.665Z,23.67
2019-05-21T10:54:53.901Z,22.57
2019-05-21T10:57:20.591Z,21.60
2019-05-21T10:59:47.610Z,21.83
2019-05-21T11:02:16.187Z,23.57
2019-05-21T11:04:45.100Z,23.83
2019-05-21T11:07:13.816Z,23.63
2019-05-21T11:09:40.482Z,24.90
2019-05-21T11:12:08.822Z,24.47
2019-05-21T11:14:35.500Z,23.27
2019-05-21T11:17:02.033Z,24.67
2019-05-21T11:19:28.615Z,23.73
2019-05-21T11:21:55.290Z,26.83
2019-05-21T11:24:21.968Z,25.30
2019-05-21T11:26:48.532Z,24.93
2019-05-21T11:29:15.062Z,28.07
2019-05-21T11:31:55.748Z,26.53
2019-05-21T11:34:10.157Z,26.43
2019-05-21T11:36:36.753Z,26.40
2019-05-21T11:39:06.236Z,27.13
2019-05-21T11:41:32.879Z,28.83
2019-05-21T11:43:59.439Z,24.90
2019-05-21T11:46:26.083Z,25.67
2019-05-21T11:48:52.768Z,23.43
2019-05-21T11:51:19.397Z,24.97
2019-05-21T11:53:46.008Z,25.23
2019-05-21T11:56:12.545Z,24.90
2019-05-21T11:58:39.966Z,26.40
2019-05-21T12:01:06.759Z,26.23
2019-05-21T12:03:33.313Z,27.43
2019-05-21T12:05:59.878Z,30.13
2019-05-21T12:08:26.537Z,29.50
2019-05-21T12:10:53.421Z,29.03
2019-05-21T12:13:20.664Z,29.27
2019-05-21T12:15:47.509Z,25.77
2019-05-21T12:18:14.163Z,32.37
2019-05-21T12:20:40.722Z,29.17
2019-05-21T12:23:07.397Z,29.67
2019-05-21T12:25:34.074Z,29.60
2019-05-21T12:28:00.618Z,28.67
2019-05-21T12:30:46.747Z,29.80
2019-05-21T12:33:13.268Z,28.27
2019-05-21T12:35:39.821Z,30.37
2019-05-21T12:38:06.606Z,28.63
2019-05-21T12:40:33.168Z,27.13
2019-05-21T12:42:59.896Z,30.27
2019-05-21T12:45:26.470Z,26.23
2019-05-21T12:47:53.228Z,26.07
2019-05-21T12:50:20.408Z,28.33
2019-05-21T12:52:46.934Z,26.30
2019-05-21T12:55:13.703Z,28.13
2019-05-21T12:57:42.369Z,27.07
2019-05-21T13:00:13.131Z,27.03
2019-05-21T13:02:39.674Z,26.70
2019-05-21T13:05:06.658Z,28.80
2019-05-21T13:07:33.427Z,28.43
2019-05-21T13:10:00.910Z,28.20
2019-05-21T13:12:27.647Z,24.67
2019-05-21T13:14:54.323Z,24.57
2019-05-21T13:17:21.067Z,23.30
2019-05-21T13:19:48.122Z,23.53
2019-05-21T13:22:14.688Z,23.93
2019-05-21T13:24:41.364Z,27.17
2019-05-21T13:27:08.093Z,25.87
2019-05-21T13:29:36.407Z,26.50
2019-05-21T13:32:03.414Z,25.43
2019-05-21T13:34:31.684Z,26.97
2019-05-21T13:36:58.413Z,26.43
2019-05-21T13:39:26.264Z,31.40
2019-05-21T13:41:52.933Z,25.40
2019-05-21T13:44:19.572Z,28.27
2019-05-21T13:46:46.251Z,27.57
2019-05-21T13:49:12.881Z,28.10
2019-05-21T13:51:39.469Z,26.70
2019-05-21T13:54:05.997Z,32.03
2019-05-21T13:56:32.841Z,27.70
2019-05-21T13:58:59.385Z,28.23
2019-05-21T14:01:39.932Z,25.57
2019-05-21T14:03:54.603Z,28.17
2019-05-21T14:06:21.161Z,27.57
2019-05-21T14:08:47.698Z,23.80
2019-05-21T14:11:14.469Z,24.23
2019-05-21T14:13:41.312Z,23.90
2019-05-21T14:16:08.079Z,21.13
2019-05-21T14:18:34.610Z,21.63
2019-05-21T14:21:01.185Z,20.70
2019-05-21T14:23:29.482Z,21.53
2019-05-21T14:25:56.110Z,18.40
2019-05-21T14:28:22.924Z,20.93
2019-05-21T14:30:49.561Z,16.77
2019-05-21T14:33:16.223Z,14.50
2019-05-21T14:35:42.788Z,14.47
2019-05-21T14:38:09.478Z,13.47
2019-05-21T14:40:36.207Z,12.50
2019-05-21T14:43:03.070Z,13.00
2019-05-21T14:45:34.081Z,12.27
2019-05-21T14:47:59.702Z,12.13
2019-05-21T14:50:27.942Z,11.47
2019-05-21T14:52:54.914Z,12.87
2019-05-21T14:55:22.246Z,11.53
2019-05-21T14:57:49.014Z,11.27
2019-05-21T15:00:18.962Z,10.67
2019-05-21T15:02:46.190Z,10.97
2019-05-21T15:05:14.750Z,12.47
2019-05-21T15:07:41.406Z,11.13
2019-05-21T15:10:07.863Z,11.90
2019-05-21T15:12:34.420Z,13.10
2019-05-21T15:15:01.054Z,11.33
2019-05-21T15:17:27.614Z,11.73
2019-05-21T15:19:56.157Z,11.13
2019-05-21T15:22:22.762Z,12.00
2019-05-21T15:24:49.296Z,11.77
2019-05-21T15:27:15.864Z,13.10
2019-05-21T15:29:42.405Z,13.47
2019-05-21T15:32:09.038Z,12.23
2019-05-21T15:34:35.725Z,13.73
2019-05-21T15:37:03.785Z,14.37
2019-05-21T15:39:30.585Z,12.70
2019-05-21T15:41:57.118Z,13.00
2019-05-21T15:44:23.678Z,13.20
2019-05-21T15:46:51.880Z,13.63
2019-05-21T15:49:33.274Z,13.20
2019-05-21T15:51:47.126Z,12.97
2019-05-21T15:54:13.796Z,14.83
2019-05-21T15:56:40.523Z,14.43
2019-05-21T15:59:07.188Z,15.53
2019-05-21T16:01:34.026Z,15.90
2019-05-21T16:04:00.803Z,15.33
2019-05-21T16:06:27.559Z,14.37
2019-05-21T16:08:54.289Z,16.03
2019-05-21T16:11:28.743Z,16.00
2019-05-21T16:13:49.433Z,13.50
2019-05-21T16:16:15.964Z,13.57
2019-05-21T16:18:42.528Z,12.50
2019-05-21T16:21:09.096Z,13.03
2019-05-21T16:23:36.104Z,12.67
2019-05-21T16:26:02.836Z,12.67
2019-05-21T16:28:29.506Z,12.53
2019-05-21T16:30:56.143Z,13.30
2019-05-21T16:33:22.818Z,13.13
2019-05-21T16:35:49.555Z,12.97
2019-05-21T16:38:17.058Z,14.37
2019-05-21T16:40:44.156Z,14.43
2019-05-21T16:43:10.804Z,14.07
2019-05-21T16:45:37.492Z,14.97
2019-05-21T16:48:04.220Z,15.03
2019-05-21T16:50:30.787Z,14.30
2019-05-21T16:52:57.621Z,14.80
2019-05-21T16:55:24.497Z,14.07
2019-05-21T16:57:51.044Z,14.70
2019-05-21T17:00:18.804Z,14.40
2019-05-21T17:02:45.340Z,14.93
2019-05-21T17:05:12.818Z,14.83
2019-05-21T17:07:39.365Z,15.47
2019-05-21T17:10:06.933Z,16.20
2019-05-21T17:12:33.561Z,17.00
2019-05-21T17:15:00.038Z,17.23
2019-05-21T17:17:26.566Z,19.80
2019-05-21T17:19:53.232Z,20.33
2019-05-21T17:22:19.901Z,20.63
2019-05-21T17:24:46.471Z,19.67
2019-05-21T17:27:13.019Z,20.00
2019-05-21T17:29:39.770Z,20.07
2019-05-21T17:32:06.787Z,19.00
2019-05-21T17:34:33.601Z,18.67
2019-05-21T17:37:00.242Z,19.00
2019-05-21T17:39:26.821Z,18.43
2019-05-21T17:41:54.457Z,19.13
2019-05-21T17:44:24.411Z,19.77
2019-05-21T17:46:49.644Z,18.57
2019-05-21T17:49:16.994Z,18.63
2019-05-21T17:51:43.600Z,17.87
2019-05-21T17:54:10.441Z,18.00
2019-05-21T17:56:37.363Z,19.47
2019-05-21T17:59:03.981Z,19.10
2019-05-21T18:01:31.058Z,17.30
2019-05-21T18:03:58.354Z,18.90
2019-05-21T18:06:25.807Z,18.90
2019-05-21T18:08:52.453Z,18.50
2019-05-21T18:11:19.313Z,20.23
2019-05-21T18:13:48.186Z,19.10
2019-05-21T18:16:15.723Z,19.50
2019-05-21T18:18:44.556Z,21.47
2019-05-21T18:21:11.475Z,20.80
2019-05-21T18:23:38.385Z,19.67
2019-05-21T18:26:05.055Z,20.40
2019-05-21T18:28:32.118Z,20.80
2019-05-21T18:30:58.915Z,20.70
2019-05-21T18:33:25.609Z,22.17
2019-05-21T18:35:52.440Z,21.37
2019-05-21T18:38:20.080Z,21.67
2019-05-21T18:40:47.082Z,21.80
2019-05-21T18:43:13.753Z,22.57
2019-05-21T18:45:40.519Z,23.17
2019-05-21T18:48:08.280Z,22.67
2019-05-21T18:50:36.992Z,23.53
2019-05-21T18:53:04.198Z,23.90
2019-05-21T18:55:31.050Z,23.17
2019-05-21T18:57:57.859Z,23.70
2019-05-21T19:00:25.381Z,21.93
2019-05-21T19:02:52.218Z,20.63
2019-05-21T19:05:18.865Z,20.10
2019-05-21T19:07:45.469Z,20.33
2019-05-21T19:10:12.792Z,20.20
2019-05-21T19:12:40.724Z,19.70
2019-05-21T19:15:09.255Z,20.27
2019-05-21T19:17:36.319Z,19.50
2019-05-21T19:20:11.663Z,20.40
2019-05-21T19:22:39.393Z,20.10
2019-05-21T19:25:07.227Z,19.57
2019-05-21T19:27:35.089Z,21.63
2019-05-21T19:30:04.169Z,21.27
2019-05-21T19:32:31.132Z,22.30
2019-05-21T19:34:58.944Z,24.43
2019-05-21T19:37:25.789Z,23.90
2019-05-21T19:39:52.497Z,26.83
2019-05-21T19:42:19.768Z,24.83
2019-05-21T19:44:46.395Z,25.57
2019-05-21T19:47:12.985Z,25.57
2019-05-21T19:49:39.892Z,27.13
2019-05-21T19:52:06.582Z,26.13
2019-05-21T19:54:33.560Z,26.17
2019-05-21T19:57:00.228Z,24.17
2019-05-21T19:59:26.978Z,24.00
2019-05-21T20:01:55.465Z,23.87
2019-05-21T20:04:23.303Z,23.23
2019-05-21T20:06:50.251Z,22.20
2019-05-21T20:09:17.020Z,22.03
2019-05-21T20:11:43.730Z,23.00
2019-05-21T20:14:10.934Z,20.00
2019-05-21T20:16:38.081Z,19.80
2019-05-21T20:19:05.590Z,18.20
2019-05-21T20:21:34.258Z,18.43
2019-05-21T20:24:01.164Z,18.87
2019-05-21T20:26:30.834Z,16.17
2019-05-21T20:28:58.994Z,16.17
2019-05-21T20:31:26.258Z,13.53
2019-05-21T20:33:54.226Z,13.67
2019-05-21T20:36:21.174Z,12.20
2019-05-21T20:38:48.274Z,13.37
2019-05-21T20:41:17.645Z,13.00
2019-05-21T20:43:57.900Z,14.23
2019-05-21T20:46:13.862Z,13.77
2019-05-21T20:48:42.167Z,12.07
2019-05-21T20:51:09.375Z,11.73
2019-05-21T20:53:36.137Z,11.47
2019-05-21T20:56:04.475Z,9.97
2019-05-21T20:58:31.826Z,11.23
2019-05-21T21:01:00.254Z,10.33
2019-05-21T21:03:28.221Z,7.67
2019-05-21T21:05:54.801Z,7.40
2019-05-21T21:08:27.365Z,7.60
2019-05-21T21:10:51.717Z,6.50
2019-05-21T21:13:18.597Z,7.17
2019-05-21T21:15:45.842Z,7.40
2019-05-21T21:18:12.604Z,7.30
2019-05-21T21:20:39.227Z,7.00
2019-05-21T21:23:07.925Z,6.83
2019-05-21T21:25:35.164Z,7.13
2019-05-21T21:28:02.505Z,7.80
2019-05-21T21:30:31.137Z,7.57
2019-05-21T21:32:59.505Z,8.50
2019-05-21T21:35:26.535Z,8.20
2019-05-21T21:37:53.077Z,7.57
2019-05-21T21:40:21.429Z,6.73
2019-05-21T21:42:48.161Z,6.17
2019-05-21T21:45:14.927Z,5.30
2019-05-21T21:47:42.077Z,5.30
2019-05-21T21:50:10.044Z,5.10
2019-05-21T21:52:36.973Z,4.20
2019-05-21T21:55:05.741Z,3.60
2019-05-21T21:57:32.378Z,3.83
2019-05-21T21:59:59.445Z,4.30
2019-05-21T22:02:31.605Z,4.17
2019-05-21T22:04:59.876Z,3.87
2019-05-21T22:07:28.212Z,4.43
2019-05-21T22:09:56.402Z,4.13
2019-05-21T22:12:23.838Z,3.43
2019-05-21T22:14:57.023Z,3.47
2019-05-21T22:17:24.446Z,3.70
2019-05-21T22:19:51.231Z,3.70
2019-05-21T22:22:18.076Z,3.67
2019-05-21T22:24:44.697Z,3.70
2019-05-21T22:27:11.634Z,3.20
2019-05-21T22:29:38.313Z,4.07
2019-05-21T22:32:05.440Z,4.50
2019-05-21T22:34:32.201Z,4.33
2019-05-21T22:36:58.737Z,4.80
2019-05-21T22:39:27.492Z,4.97
2019-05-21T22:41:54.185Z,5.63
2019-05-21T22:44:20.934Z,5.10
2019-05-21T22:46:47.507Z,4.70
2019-05-21T22:49:14.137Z,5.40
2019-05-21T22:51:40.718Z,5.10
2019-05-21T22:54:07.239Z,4.70
2019-05-21T22:56:34.033Z,5.60
2019-05-21T22:59:01.718Z,6.00
2019-05-21T23:01:29.913Z,6.00
2019-05-21T23:03:57.165Z,5.17
2019-05-21T23:06:24.079Z,5.10
2019-05-21T23:08:50.662Z,5.47
2019-05-21T23:11:17.327Z,5.83
2019-05-21T23:13:44.150Z,6.30
2019-05-21T23:16:11.112Z,6.07
2019-05-21T23:18:39.057Z,6.50
2019-05-21T23:21:07.645Z,5.97
2019-05-21T23:23:35.189Z,5.83
2019-05-21T23:26:02.158Z,6.50
2019-05-21T23:28:30.677Z,6.10
2019-05-21T23:30:58.339Z,6.07
2019-05-21T23:33:27.054Z,5.87
2019-05-21T23:35:53.638Z,6.63
2019-05-21T23:38:21.071Z,5.93
2019-05-21T23:40:48.346Z,4.53
2019-05-21T23:43:16.703Z,5.30
2019-05-21T23:45:43.879Z,5.90
2019-05-21T23:48:13.214Z,6.13
2019-05-21T23:50:40.087Z,6.20
2019-05-21T23:53:09.326Z,6.00
2019-05-21T23:55:38.301Z,6.70
2019-05-21T23:58:07.229Z,6.80
